< < Back
Terminal Aerodrome Forecast


Current Version              Previous Versions:   1  2  3  4  5  6  7  8  9  

Terminal Aerodrome Forecast

733
FTUS44 KBMX 240500
TAFMGM
TAF
KMGM 240520Z 2406/2506 00000KT P6SM SCT250
     FM241700 34007KT P6SM SKC
     FM250100 32003KT P6SM SKC=

Latest METAR

762
SAUS80 KWBC 240800 RRB
MTRMGM
METAR KMGM 240753Z 00000KT 10SM CLR 10/08 A3006 RMK AO2 SLP177
T01000078


USA.gov is the U.S. government's official web portal to all federal, state and local government web resources and services.